Impacts METAR Board
IDs:

KDFW - Dallas-Ft Worth Intl, TX, US

Updated at: 1100 UTC 30 Oct 2020
Potential Impact None Slight Moderate High
Time 29/23Z 30/00Z 30/01Z 30/02Z 30/03Z 30/04Z 30/05Z 30/06Z 30/07Z 30/08Z 30/09Z 30/10Z 30/11Z
Temp59 56 53 52 49 47 47 45 45 40 42 39 39
Dewpt43 42 42 42 42 41 41 39 39 36 38 37 36
Altim30.13 30.14 30.17 30.19 30.21 30.22 30.25 30.26 30.27 30.28 30.27 30.27 30.27
VIS10 10 10 10 10 10 10 10 10 10 10 10 10
CIG-- -- -- -- -- -- -- -- -- -- -- -- --
CoverFEWCLRCLRCLRCLRCLRCLRCLRCLRCLRCLRCLRCLR
FltCatVFRVFRVFRVFRVFRVFRVFRVFRVFRVFRVFRVFRVFR
WX--------------------------
WDir350340330320340330320320360220320340340
WSpd11 12 9 10 7 8 5 6 3 4 6 5 7
WGst-- -- -- -- -- -- -- -- -- -- -- -- --
Raw hourly METARs
KDFW 292253Z 35011KT 10SM FEW040 15/06 A3013 RMK AO2 SLP201 T01500061 $
KDFW 292353Z 34012KT 10SM CLR 13/06 A3014 RMK AO2 SLP204 T01330056 10156 20100 51014 $
KDFW 300053Z 33009KT 10SM CLR 12/06 A3017 RMK AO2 SLP215 T01170056 $
KDFW 300153Z 32010KT 10SM CLR 11/06 A3019 RMK AO2 SLP223 T01110056 $
KDFW 300253Z 34007KT 10SM CLR 09/06 A3021 RMK AO2 SLP228 T00940056 51023 $
KDFW 300353Z 33008KT 10SM CLR 08/05 A3022 RMK AO2 SLP233 T00830050 $
KDFW 300453Z 32005KT 10SM CLR 08/05 A3025 RMK AO2 SLP242 T00830050 $
KDFW 300553Z 32006KT 10SM CLR 07/04 A3026 RMK AO2 SLP246 T00720039 10133 20072 401560022 51018 $
KDFW 300653Z 36003KT 10SM CLR 07/04 A3027 RMK AO2 SLP248 T00720039 $
KDFW 300753Z 22004KT 10SM CLR 04/02 A3028 RMK AO2 SLP252 T00440022 $
KDFW 300853Z 32006KT 10SM CLR 06/03 A3027 RMK AO2 SLP251 T00560033 50005 $
KDFW 300953Z 34005KT 10SM CLR 04/03 A3027 RMK AO2 SLP248 T00390028 $
KDFW 301053Z 34007KT 10SM CLR 04/02 A3027 RMK AO2 SLP250 T00390022 $



Page loaded:  11:30 UTC  |   04:30 AM Pacific  |   05:30 AM Mountain  |   06:30 AM Central  |   07:30 AM Eastern

 

ADVISORIES

FORECASTS

FORECASTS

OBSERVATIONS

USER TOOLS

ABOUT US